Terminal Aerodrome Forecast
Issued by NWS Milwaukee/Sullivan, WI

Home | Current Version | Previous Version | Text Only | Print | Product List | Glossary On
Versions: 1 2 3 4 5 6 7 8 9 10 11 12 13 14 15 16 17 18 19 20 21 22 23 24 25 26 27 28 29 30 31
000
FTUS43 KMKX 202058 AAB
TAFMKE
TAF AMD
KMKE 202058Z 2021/2124 11008KT P6SM SCT025 SCT250
     FM210200 09005KT P6SM SCT100
     FM211200 07005KT P6SM BKN120
     FM211800 14007KT P6SM SCT040 BKN150
     FM212200 13007KT P6SM VCTS SCT040CB BKN100=

USA.gov is the U.S. government's official web portal to all federal, state and local government web resources and services.